sensor_id;sensor_type;location;lat;lon;timestamp;pressure;altitude;pressure_sealevel;temperature;humidity
21988;BME280;11158;53.404;-1.510;2023-08-24T00:02:06;100438.41;;;23.51;50.77
21988;BME280;11158;53.404;-1.510;2023-08-24T00:04:50;100446.84;;;23.54;50.87
21988;BME280;11158;53.404;-1.510;2023-08-24T00:07:37;100446.84;;;23.54;50.94
21988;BME280;11158;53.404;-1.510;2023-08-24T00:10:21;100456.75;;;23.81;50.02
21988;BME280;11158;53.404;-1.510;2023-08-24T00:13:06;100456.16;;;23.69;50.71
21988;BME280;11158;53.404;-1.510;2023-08-24T00:15:53;100450.97;;;23.67;50.63
21988;BME280;11158;53.404;-1.510;2023-08-24T00:18:37;100451.22;;;23.50;50.99
21988;BME280;11158;53.404;-1.510;2023-08-24T00:21:21;100448.47;;;23.45;51.50
21988;BME280;11158;53.404;-1.510;2023-08-24T00:24:06;100443.03;;;23.50;51.03
21988;BME280;11158;53.404;-1.510;2023-08-24T00:26:51;100433.44;;;23.32;51.83
21988;BME280;11158;53.404;-1.510;2023-08-24T00:29:35;100439.16;;;23.36;51.56
21988;BME280;11158;53.404;-1.510;2023-08-24T00:32:19;100445.66;;;23.25;52.07
21988;BME280;11158;53.404;-1.510;2023-08-24T00:35:05;100434.81;;;23.45;51.36
21988;BME280;11158;53.404;-1.510;2023-08-24T00:37:50;100434.81;;;23.45;51.14
21988;BME280;11158;53.404;-1.510;2023-08-24T00:40:34;100436.47;;;23.46;51.28
21988;BME280;11158;53.404;-1.510;2023-08-24T00:43:18;100429.16;;;23.62;50.74
21988;BME280;11158;53.404;-1.510;2023-08-24T00:46:06;100431.03;;;23.46;51.32
21988;BME280;11158;53.404;-1.510;2023-08-24T00:48:50;100430.66;;;23.12;52.40
21988;BME280;11158;53.404;-1.510;2023-08-24T00:51:35;100428.59;;;23.55;51.31
21988;BME280;11158;53.404;-1.510;2023-08-24T00:54:19;100423.66;;;23.47;51.37
21988;BME280;11158;53.404;-1.510;2023-08-24T00:57:03;100416.53;;;23.35;51.59
21988;BME280;11158;53.404;-1.510;2023-08-24T00:59:48;100411.56;;;23.17;52.01
21988;BME280;11158;53.404;-1.510;2023-08-24T01:02:33;100407.59;;;23.66;51.14
21988;BME280;11158;53.404;-1.510;2023-08-24T01:05:17;100408.13;;;23.68;50.92
21988;BME280;11158;53.404;-1.510;2023-08-24T01:08:02;100406.19;;;23.42;51.48
21988;BME280;11158;53.404;-1.510;2023-08-24T01:14:06;100400.00;;;23.88;50.76
21988;BME280;11158;53.404;-1.510;2023-08-24T01:16:53;100403.81;;;23.97;49.97
21988;BME280;11158;53.404;-1.510;2023-08-24T01:19:43;100409.78;;;23.69;50.77
21988;BME280;11158;53.404;-1.510;2023-08-24T01:22:46;100407.91;;;23.95;50.35
21988;BME280;11158;53.404;-1.510;2023-08-24T01:28:30;100398.59;;;24.16;49.07
21988;BME280;11158;53.404;-1.510;2023-08-24T01:31:16;100402.72;;;23.93;49.79
21988;BME280;11158;53.404;-1.510;2023-08-24T01:34:01;100399.91;;;23.52;50.85
21988;BME280;11158;53.404;-1.510;2023-08-24T01:36:45;100404.81;;;23.45;51.36
21988;BME280;11158;53.404;-1.510;2023-08-24T01:39:37;100398.84;;;23.58;50.99
21988;BME280;11158;53.404;-1.510;2023-08-24T01:42:27;100399.19;;;23.82;50.45
21988;BME280;11158;53.404;-1.510;2023-08-24T01:45:14;100396.72;;;23.76;50.89
21988;BME280;11158;53.404;-1.510;2023-08-24T01:48:03;100394.81;;;23.76;50.53
21988;BME280;11158;53.404;-1.510;2023-08-24T01:50:49;100388.19;;;23.52;51.23
21988;BME280;11158;53.404;-1.510;2023-08-24T01:53:34;100393.38;;;23.48;51.53
21988;BME280;11158;53.404;-1.510;2023-08-24T01:56:19;100389.31;;;23.71;50.98
21988;BME280;11158;53.404;-1.510;2023-08-24T01:59:03;100389.59;;;23.75;50.75
21988;BME280;11158;53.404;-1.510;2023-08-24T02:01:48;100388.16;;;23.36;51.60
21988;BME280;11158;53.404;-1.510;2023-08-24T02:04:32;100383.84;;;23.46;51.47
21988;BME280;11158;53.404;-1.510;2023-08-24T02:07:17;100382.94;;;23.19;52.14
21988;BME280;11158;53.404;-1.510;2023-08-24T02:10:01;100385.19;;;23.63;51.07
21988;BME280;11158;53.404;-1.510;2023-08-24T02:12:45;100376.50;;;23.82;50.53
21988;BME280;11158;53.404;-1.510;2023-08-24T02:15:30;100378.16;;;23.83;50.41
21988;BME280;11158;53.404;-1.510;2023-08-24T02:18:14;100383.56;;;23.68;50.83
21988;BME280;11158;53.404;-1.510;2023-08-24T02:20:58;100376.44;;;23.31;51.71
21988;BME280;11158;53.404;-1.510;2023-08-24T02:23:42;100375.31;;;23.16;52.63
21988;BME280;11158;53.404;-1.510;2023-08-24T02:26:26;100365.34;;;22.79;53.28
21988;BME280;11158;53.404;-1.510;2023-08-24T02:29:10;100354.16;;;22.76;53.35
21988;BME280;11158;53.404;-1.510;2023-08-24T02:31:54;100339.66;;;22.60;53.76
21988;BME280;11158;53.404;-1.510;2023-08-24T02:34:39;100341.25;;;22.51;54.16
21988;BME280;11158;53.404;-1.510;2023-08-24T02:37:23;100335.88;;;22.66;53.56
21988;BME280;11158;53.404;-1.510;2023-08-24T02:40:07;100340.22;;;22.67;53.58
21988;BME280;11158;53.404;-1.510;2023-08-24T02:42:53;100340.38;;;22.40;54.20
21988;BME280;11158;53.404;-1.510;2023-08-24T02:45:37;100337.84;;;21.86;56.12
21988;BME280;11158;53.404;-1.510;2023-08-24T02:48:21;100340.09;;;21.67;56.56
21988;BME280;11158;53.404;-1.510;2023-08-24T02:51:05;100345.72;;;21.55;57.14
21988;BME280;11158;53.404;-1.510;2023-08-24T02:53:50;100333.44;;;21.47;57.33
21988;BME280;11158;53.404;-1.510;2023-08-24T02:56:34;100337.38;;;21.67;57.06
21988;BME280;11158;53.404;-1.510;2023-08-24T02:59:18;100341.44;;;21.96;55.96
21988;BME280;11158;53.404;-1.510;2023-08-24T03:02:02;100331.31;;;22.24;55.64
21988;BME280;11158;53.404;-1.510;2023-08-24T03:04:46;100338.09;;;21.84;56.85
21988;BME280;11158;53.404;-1.510;2023-08-24T03:07:30;100343.66;;;22.05;56.10
21988;BME280;11158;53.404;-1.510;2023-08-24T03:10:14;100343.84;;;22.30;55.41
21988;BME280;11158;53.404;-1.510;2023-08-24T03:12:58;100336.09;;;22.54;54.78
21988;BME280;11158;53.404;-1.510;2023-08-24T03:15:42;100337.06;;;22.91;53.88
21988;BME280;11158;53.404;-1.510;2023-08-24T03:18:27;100349.75;;;22.70;54.12
21988;BME280;11158;53.404;-1.510;2023-08-24T03:21:11;100360.66;;;22.70;54.26
21988;BME280;11158;53.404;-1.510;2023-08-24T03:23:55;100344.53;;;23.16;52.81
21988;BME280;11158;53.404;-1.510;2023-08-24T03:26:39;100347.44;;;22.99;53.07
21988;BME280;11158;53.404;-1.510;2023-08-24T03:29:23;100338.53;;;23.24;52.69
21988;BME280;11158;53.404;-1.510;2023-08-24T03:32:07;100336.84;;;23.03;53.00
21988;BME280;11158;53.404;-1.510;2023-08-24T03:34:51;100327.88;;;23.07;52.76
21988;BME280;11158;53.404;-1.510;2023-08-24T03:37:35;100310.97;;;23.10;52.49
21988;BME280;11158;53.404;-1.510;2023-08-24T03:40:19;100315.78;;;22.88;53.23
21988;BME280;11158;53.404;-1.510;2023-08-24T03:43:04;100329.47;;;22.40;54.57
21988;BME280;11158;53.404;-1.510;2023-08-24T03:45:48;100331.31;;;22.24;54.83
21988;BME280;11158;53.404;-1.510;2023-08-24T03:48:32;100323.84;;;22.52;54.24
21988;BME280;11158;53.404;-1.510;2023-08-24T03:51:16;100328.63;;;22.34;54.95
21988;BME280;11158;53.404;-1.510;2023-08-24T03:54:01;100314.19;;;22.29;54.71
21988;BME280;11158;53.404;-1.510;2023-08-24T03:56:47;100308.28;;;22.05;55.44
21988;BME280;11158;53.404;-1.510;2023-08-24T03:59:31;100305.09;;;22.18;54.99
21988;BME280;11158;53.404;-1.510;2023-08-24T04:02:15;100306.09;;;22.02;55.31
21988;BME280;11158;53.404;-1.510;2023-08-24T04:05:00;100304.72;;;22.42;54.19
21988;BME280;11158;53.404;-1.510;2023-08-24T04:07:44;100307.75;;;22.50;54.04
21988;BME280;11158;53.404;-1.510;2023-08-24T04:10:31;100310.78;;;22.59;53.73
21988;BME280;11158;53.404;-1.510;2023-08-24T04:13:15;100301.84;;;22.74;53.56
21988;BME280;11158;53.404;-1.510;2023-08-24T04:15:59;100295.03;;;22.76;53.34
21988;BME280;11158;53.404;-1.510;2023-08-24T04:18:43;100294.78;;;22.20;54.55
21988;BME280;11158;53.404;-1.510;2023-08-24T04:21:28;100290.75;;;22.23;54.66
21988;BME280;11158;53.404;-1.510;2023-08-24T04:24:12;100297.50;;;22.20;54.80
21988;BME280;11158;53.404;-1.510;2023-08-24T04:26:56;100276.88;;;22.24;54.46
21988;BME280;11158;53.404;-1.510;2023-08-24T04:29:40;100269.97;;;22.16;54.50
21988;BME280;11158;53.404;-1.510;2023-08-24T04:32:24;100269.47;;;22.20;54.73
21988;BME280;11158;53.404;-1.510;2023-08-24T04:35:08;100258.28;;;22.16;54.71
21988;BME280;11158;53.404;-1.510;2023-08-24T04:37:52;100265.56;;;22.05;54.93
21988;BME280;11158;53.404;-1.510;2023-08-24T04:40:53;100261.00;;;22.16;54.72
21988;BME280;11158;53.404;-1.510;2023-08-24T04:43:38;100262.00;;;22.47;53.42
21988;BME280;11158;53.404;-1.510;2023-08-24T04:46:22;100264.19;;;22.61;52.95
21988;BME280;11158;53.404;-1.510;2023-08-24T04:49:06;100267.34;;;22.27;53.84
21988;BME280;11158;53.404;-1.510;2023-08-24T04:51:50;100270.97;;;22.00;53.99
21988;BME280;11158;53.404;-1.510;2023-08-24T04:54:34;100269.91;;;21.59;55.16
21988;BME280;11158;53.404;-1.510;2023-08-24T04:57:18;100261.19;;;21.99;54.27
21988;BME280;11158;53.404;-1.510;2023-08-24T05:00:03;100258.25;;;21.68;54.70
21988;BME280;11158;53.404;-1.510;2023-08-24T05:02:49;100258.69;;;21.92;54.31
21988;BME280;11158;53.404;-1.510;2023-08-24T05:05:33;100266.91;;;22.03;53.74
21988;BME280;11158;53.404;-1.510;2023-08-24T05:08:18;100269.06;;;22.01;54.11
21988;BME280;11158;53.404;-1.510;2023-08-24T05:11:13;100265.09;;;22.18;53.16
21988;BME280;11158;53.404;-1.510;2023-08-24T05:13:57;100260.06;;;21.90;54.27
21988;BME280;11158;53.404;-1.510;2023-08-24T05:16:41;100260.09;;;22.00;53.51
21988;BME280;11158;53.404;-1.510;2023-08-24T05:19:25;100266.00;;;21.49;55.19
21988;BME280;11158;53.404;-1.510;2023-08-24T05:22:09;100265.81;;;21.29;55.41
21988;BME280;11158;53.404;-1.510;2023-08-24T05:24:54;100268.88;;;21.38;55.13
21988;BME280;11158;53.404;-1.510;2023-08-24T05:27:39;100262.84;;;21.30;55.09
21988;BME280;11158;53.404;-1.510;2023-08-24T05:30:23;100271.22;;;21.51;54.55
21988;BME280;11158;53.404;-1.510;2023-08-24T05:33:08;100265.84;;;22.04;52.79
21988;BME280;11158;53.404;-1.510;2023-08-24T05:35:52;100261.47;;;22.03;53.07
21988;BME280;11158;53.404;-1.510;2023-08-24T05:38:36;100254.47;;;21.69;53.41
21988;BME280;11158;53.404;-1.510;2023-08-24T05:41:20;100256.25;;;21.53;53.93
21988;BME280;11158;53.404;-1.510;2023-08-24T05:44:04;100268.00;;;22.02;52.64
21988;BME280;11158;53.404;-1.510;2023-08-24T05:46:48;100261.00;;;22.16;51.92
21988;BME280;11158;53.404;-1.510;2023-08-24T05:49:33;100255.53;;;22.11;51.47
21988;BME280;11158;53.404;-1.510;2023-08-24T05:52:17;100253.22;;;21.87;51.40
21988;BME280;11158;53.404;-1.510;2023-08-24T05:55:01;100253.84;;;22.00;51.37
21988;BME280;11158;53.404;-1.510;2023-08-24T05:57:45;100252.16;;;21.93;51.33
21988;BME280;11158;53.404;-1.510;2023-08-24T06:00:29;100245.59;;;21.84;51.27
21988;BME280;11158;53.404;-1.510;2023-08-24T06:03:14;100244.13;;;22.14;50.90
21988;BME280;11158;53.404;-1.510;2023-08-24T06:06:02;100248.88;;;22.39;50.18
21988;BME280;11158;53.404;-1.510;2023-08-24T06:08:47;100246.81;;;22.09;50.89
21988;BME280;11158;53.404;-1.510;2023-08-24T06:11:32;100240.34;;;22.20;50.42
21988;BME280;11158;53.404;-1.510;2023-08-24T06:14:17;100233.69;;;22.58;49.07
21988;BME280;11158;53.404;-1.510;2023-08-24T06:17:01;100229.09;;;22.64;48.49
21988;BME280;11158;53.404;-1.510;2023-08-24T06:19:45;100225.75;;;22.47;48.33
21988;BME280;11158;53.404;-1.510;2023-08-24T06:22:29;100218.69;;;22.56;48.14
21988;BME280;11158;53.404;-1.510;2023-08-24T06:25:13;100215.16;;;22.50;48.91
21988;BME280;11158;53.404;-1.510;2023-08-24T06:27:58;100218.69;;;22.56;49.10
21988;BME280;11158;53.404;-1.510;2023-08-24T06:30:43;100213.84;;;22.73;48.33
21988;BME280;11158;53.404;-1.510;2023-08-24T06:33:28;100201.06;;;22.84;48.13
21988;BME280;11158;53.404;-1.510;2023-08-24T06:36:15;100205.16;;;22.97;47.42
21988;BME280;11158;53.404;-1.510;2023-08-24T06:38:59;100203.59;;;23.11;47.19
21988;BME280;11158;53.404;-1.510;2023-08-24T06:41:43;100198.63;;;23.34;45.95
21988;BME280;11158;53.404;-1.510;2023-08-24T06:44:27;100190.97;;;23.77;45.26
21988;BME280;11158;53.404;-1.510;2023-08-24T06:47:11;100186.53;;;24.01;44.04
21988;BME280;11158;53.404;-1.510;2023-08-24T06:49:55;100183.63;;;23.47;44.58
21988;BME280;11158;53.404;-1.510;2023-08-24T06:52:39;100170.78;;;23.68;44.53
21988;BME280;11158;53.404;-1.510;2023-08-24T06:55:23;100159.66;;;25.08;42.54
21988;BME280;11158;53.404;-1.510;2023-08-24T06:58:08;100141.94;;;27.02;37.40
21988;BME280;11158;53.404;-1.510;2023-08-24T07:00:52;100149.91;;;27.77;35.80
21988;BME280;11158;53.404;-1.510;2023-08-24T07:03:37;100159.63;;;25.96;39.09
21988;BME280;11158;53.404;-1.510;2023-08-24T07:06:24;100176.63;;;25.92;39.38
21988;BME280;11158;53.404;-1.510;2023-08-24T07:09:08;100177.19;;;25.65;39.75
21988;BME280;11158;53.404;-1.510;2023-08-24T07:11:53;100174.69;;;24.76;41.40
21988;BME280;11158;53.404;-1.510;2023-08-24T07:14:37;100146.06;;;25.61;40.23
21988;BME280;11158;53.404;-1.510;2023-08-24T07:17:21;100152.00;;;25.39;40.62
21988;BME280;11158;53.404;-1.510;2023-08-24T07:20:05;100165.03;;;24.44;42.19
21988;BME280;11158;53.404;-1.510;2023-08-24T07:22:50;100168.44;;;25.05;40.89
21988;BME280;11158;53.404;-1.510;2023-08-24T07:25:34;100167.16;;;25.32;40.42
21988;BME280;11158;53.404;-1.510;2023-08-24T07:28:18;100159.34;;;25.44;40.52
21988;BME280;11158;53.404;-1.510;2023-08-24T07:31:09;100149.69;;;25.27;39.84
21988;BME280;11158;53.404;-1.510;2023-08-24T07:33:57;100145.63;;;25.49;40.21
21988;BME280;11158;53.404;-1.510;2023-08-24T07:36:42;100149.50;;;25.96;39.56
21988;BME280;11158;53.404;-1.510;2023-08-24T07:39:28;100146.47;;;26.60;38.15
21988;BME280;11158;53.404;-1.510;2023-08-24T07:42:13;100137.72;;;26.58;37.74
21988;BME280;11158;53.404;-1.510;2023-08-24T07:44:57;100133.91;;;26.72;37.70
21988;BME280;11158;53.404;-1.510;2023-08-24T07:47:42;100128.72;;;27.36;36.81
21988;BME280;11158;53.404;-1.510;2023-08-24T07:50:26;100126.38;;;26.64;37.93
21988;BME280;11158;53.404;-1.510;2023-08-24T07:53:10;100116.03;;;27.27;36.90
21988;BME280;11158;53.404;-1.510;2023-08-24T07:55:54;100118.31;;;27.20;37.72
21988;BME280;11158;53.404;-1.510;2023-08-24T07:58:42;100120.72;;;27.40;36.89
21988;BME280;11158;53.404;-1.510;2023-08-24T08:01:26;100109.84;;;26.12;39.72
21988;BME280;11158;53.404;-1.510;2023-08-24T08:04:10;100117.75;;;26.52;39.01
21988;BME280;11158;53.404;-1.510;2023-08-24T08:06:53;100111.16;;;27.38;37.93
21988;BME280;11158;53.404;-1.510;2023-08-24T08:09:40;100108.72;;;27.64;37.54
21988;BME280;11158;53.404;-1.510;2023-08-24T08:12:24;100108.56;;;26.81;38.75
21988;BME280;11158;53.404;-1.510;2023-08-24T08:15:08;100111.03;;;26.25;40.06
21988;BME280;11158;53.404;-1.510;2023-08-24T08:17:53;100106.97;;;26.42;39.63
21988;BME280;11158;53.404;-1.510;2023-08-24T08:20:39;100110.91;;;26.54;39.92
21988;BME280;11158;53.404;-1.510;2023-08-24T08:23:23;100114.78;;;25.91;40.99
21988;BME280;11158;53.404;-1.510;2023-08-24T08:26:10;100111.03;;;26.44;40.55
21988;BME280;11158;53.404;-1.510;2023-08-24T08:28:54;100098.66;;;27.31;38.76
21988;BME280;11158;53.404;-1.510;2023-08-24T08:31:40;100097.88;;;28.23;36.89
21988;BME280;11158;53.404;-1.510;2023-08-24T08:34:24;100103.41;;;26.22;40.55
21988;BME280;11158;53.404;-1.510;2023-08-24T08:37:08;100104.88;;;27.04;39.16
21988;BME280;11158;53.404;-1.510;2023-08-24T08:39:53;100097.09;;;27.25;38.51
21988;BME280;11158;53.404;-1.510;2023-08-24T08:42:37;100108.91;;;26.41;39.88
21988;BME280;11158;53.404;-1.510;2023-08-24T08:45:27;100111.00;;;26.82;39.76
21988;BME280;11158;53.404;-1.510;2023-08-24T08:48:11;100117.56;;;27.33;38.79
21988;BME280;11158;53.404;-1.510;2023-08-24T08:50:57;100104.56;;;28.67;37.38
21988;BME280;11158;53.404;-1.510;2023-08-24T08:53:42;100088.03;;;29.92;34.09
21988;BME280;11158;53.404;-1.510;2023-08-24T08:56:26;100072.47;;;29.87;34.57
21988;BME280;11158;53.404;-1.510;2023-08-24T08:59:14;100082.53;;;29.52;34.50
21988;BME280;11158;53.404;-1.510;2023-08-24T09:02:00;100087.16;;;29.02;35.35
21988;BME280;11158;53.404;-1.510;2023-08-24T09:04:45;100091.41;;;29.09;35.16
21988;BME280;11158;53.404;-1.510;2023-08-24T09:07:34;100079.75;;;29.43;34.77
21988;BME280;11158;53.404;-1.510;2023-08-24T09:10:20;100095.16;;;28.90;35.40
21988;BME280;11158;53.404;-1.510;2023-08-24T09:13:04;100092.69;;;28.57;36.13
21988;BME280;11158;53.404;-1.510;2023-08-24T09:15:51;100093.00;;;28.56;36.21
21988;BME280;11158;53.404;-1.510;2023-08-24T09:18:38;100090.25;;;28.78;35.39
21988;BME280;11158;53.404;-1.510;2023-08-24T09:21:23;100083.13;;;28.77;35.44
21988;BME280;11158;53.404;-1.510;2023-08-24T09:24:10;100075.31;;;29.02;35.49
21988;BME280;11158;53.404;-1.510;2023-08-24T09:26:54;100079.00;;;28.66;36.08
21988;BME280;11158;53.404;-1.510;2023-08-24T09:29:38;100071.22;;;28.91;35.88
21988;BME280;11158;53.404;-1.510;2023-08-24T09:32:29;100066.56;;;29.22;35.10
21988;BME280;11158;53.404;-1.510;2023-08-24T09:35:14;100064.50;;;29.28;34.86
21988;BME280;11158;53.404;-1.510;2023-08-24T09:38:00;100080.31;;;28.91;35.79
21988;BME280;11158;53.404;-1.510;2023-08-24T09:40:50;100077.59;;;29.31;35.37
21988;BME280;11158;53.404;-1.510;2023-08-24T09:43:35;100087.63;;;29.27;35.25
21988;BME280;11158;53.404;-1.510;2023-08-24T09:46:19;100082.63;;;29.07;36.05
21988;BME280;11158;53.404;-1.510;2023-08-24T09:49:08;100083.72;;;28.97;35.79
21988;BME280;11158;53.404;-1.510;2023-08-24T09:51:56;100092.13;;;27.96;37.84
21988;BME280;11158;53.404;-1.510;2023-08-24T09:54:41;100090.81;;;27.94;37.82
21988;BME280;11158;53.404;-1.510;2023-08-24T09:57:27;100079.63;;;28.04;37.83
21988;BME280;11158;53.404;-1.510;2023-08-24T10:00:13;100088.09;;;28.30;37.25
21988;BME280;11158;53.404;-1.510;2023-08-24T10:03:01;100098.56;;;28.65;36.80
21988;BME280;11158;53.404;-1.510;2023-08-24T10:05:50;100092.31;;;28.50;36.79
21988;BME280;11158;53.404;-1.510;2023-08-24T10:08:36;100086.66;;;28.33;37.28
21988;BME280;11158;53.404;-1.510;2023-08-24T10:11:27;100088.81;;;27.44;39.01
21988;BME280;11158;53.404;-1.510;2023-08-24T10:14:15;100089.63;;;27.31;39.88
21988;BME280;11158;53.404;-1.510;2023-08-24T10:17:04;100089.09;;;26.96;39.42
21988;BME280;11158;53.404;-1.510;2023-08-24T10:19:51;100092.56;;;27.02;39.90
21988;BME280;11158;53.404;-1.510;2023-08-24T10:22:36;100090.09;;;27.19;39.51
21988;BME280;11158;53.404;-1.510;2023-08-24T10:25:22;100078.72;;;27.95;38.21
21988;BME280;11158;53.404;-1.510;2023-08-24T10:28:08;100080.06;;;28.56;37.16
21988;BME280;11158;53.404;-1.510;2023-08-24T10:30:57;100076.03;;;28.40;36.76
21988;BME280;11158;53.404;-1.510;2023-08-24T10:33:42;100082.66;;;28.03;37.51
21988;BME280;11158;53.404;-1.510;2023-08-24T10:36:29;100061.78;;;29.37;36.00
21988;BME280;11158;53.404;-1.510;2023-08-24T10:39:14;100056.69;;;29.70;34.19
21988;BME280;11158;53.404;-1.510;2023-08-24T10:42:00;100058.22;;;30.63;33.03
21988;BME280;11158;53.404;-1.510;2023-08-24T10:44:47;100067.78;;;30.57;33.19
21988;BME280;11158;53.404;-1.510;2023-08-24T10:47:43;100057.84;;;30.82;33.29
21988;BME280;11158;53.404;-1.510;2023-08-24T10:50:28;100056.56;;;30.71;32.40
21988;BME280;11158;53.404;-1.510;2023-08-24T10:53:38;100055.59;;;29.97;33.91
21988;BME280;11158;53.404;-1.510;2023-08-24T10:56:52;100044.06;;;30.65;32.57
21988;BME280;11158;53.404;-1.510;2023-08-24T10:59:38;100047.53;;;29.52;34.30
21988;BME280;11158;53.404;-1.510;2023-08-24T11:02:23;100053.84;;;30.10;33.62
21988;BME280;11158;53.404;-1.510;2023-08-24T11:05:35;100064.13;;;28.67;36.55
21988;BME280;11158;53.404;-1.510;2023-08-24T11:08:20;100083.09;;;27.54;39.08
21988;BME280;11158;53.404;-1.510;2023-08-24T11:11:18;100073.09;;;26.51;41.66
21988;BME280;11158;53.404;-1.510;2023-08-24T11:14:20;100076.97;;;25.94;43.17
21988;BME280;11158;53.404;-1.510;2023-08-24T11:17:30;100069.25;;;25.53;44.33
21988;BME280;11158;53.404;-1.510;2023-08-24T11:20:21;100073.06;;;25.52;43.70
21988;BME280;11158;53.404;-1.510;2023-08-24T11:23:05;100082.78;;;24.51;45.91
21988;BME280;11158;53.404;-1.510;2023-08-24T11:25:52;100067.38;;;24.95;45.87
21988;BME280;11158;53.404;-1.510;2023-08-24T11:28:40;100060.28;;;25.23;44.75
21988;BME280;11158;53.404;-1.510;2023-08-24T11:31:24;100066.53;;;25.71;43.61
21988;BME280;11158;53.404;-1.510;2023-08-24T11:34:08;100065.72;;;26.33;41.86
21988;BME280;11158;53.404;-1.510;2023-08-24T11:36:53;100080.31;;;26.09;42.37
21988;BME280;11158;53.404;-1.510;2023-08-24T11:39:37;100083.50;;;26.54;41.59
21988;BME280;11158;53.404;-1.510;2023-08-24T11:42:23;100086.03;;;26.32;41.66
21988;BME280;11158;53.404;-1.510;2023-08-24T11:45:11;100079.28;;;25.81;43.21
21988;BME280;11158;53.404;-1.510;2023-08-24T11:47:59;100079.81;;;26.07;42.15
21988;BME280;11158;53.404;-1.510;2023-08-24T11:50:48;100075.28;;;25.98;41.92
21988;BME280;11158;53.404;-1.510;2023-08-24T11:53:36;100081.88;;;25.73;42.51
21988;BME280;11158;53.404;-1.510;2023-08-24T11:56:20;100089.16;;;26.77;40.98
21988;BME280;11158;53.404;-1.510;2023-08-24T11:59:05;100075.50;;;26.58;41.03
21988;BME280;11158;53.404;-1.510;2023-08-24T12:01:50;100082.28;;;26.93;40.46
21988;BME280;11158;53.404;-1.510;2023-08-24T12:04:39;100079.56;;;27.07;39.72
21988;BME280;11158;53.404;-1.510;2023-08-24T12:07:23;100063.44;;;26.73;40.89
21988;BME280;11158;53.404;-1.510;2023-08-24T12:10:08;100062.94;;;26.52;41.19
21988;BME280;11158;53.404;-1.510;2023-08-24T12:13:06;100075.78;;;26.57;41.52
21988;BME280;11158;53.404;-1.510;2023-08-24T12:15:52;100081.25;;;26.38;41.91
21988;BME280;11158;53.404;-1.510;2023-08-24T12:18:46;100089.59;;;25.65;43.22
21988;BME280;11158;53.404;-1.510;2023-08-24T12:21:33;100080.47;;;25.75;43.51
21988;BME280;11158;53.404;-1.510;2023-08-24T12:24:18;100076.25;;;25.83;43.33
21988;BME280;11158;53.404;-1.510;2023-08-24T12:27:02;100080.31;;;25.42;44.09
21988;BME280;11158;53.404;-1.510;2023-08-24T12:29:50;100073.28;;;25.79;42.87
21988;BME280;11158;53.404;-1.510;2023-08-24T12:32:45;100072.09;;;25.18;44.11
21988;BME280;11158;53.404;-1.510;2023-08-24T12:35:29;100072.47;;;25.79;42.76
21988;BME280;11158;53.404;-1.510;2023-08-24T12:38:13;100070.06;;;26.34;42.29
21988;BME280;11158;53.404;-1.510;2023-08-24T12:40:58;100064.41;;;26.11;42.65
21988;BME280;11158;53.404;-1.510;2023-08-24T12:43:42;100067.97;;;26.12;42.50
21988;BME280;11158;53.404;-1.510;2023-08-24T12:46:27;100076.38;;;26.16;42.02
21988;BME280;11158;53.404;-1.510;2023-08-24T12:49:12;100078.16;;;25.87;43.35
21988;BME280;11158;53.404;-1.510;2023-08-24T12:51:57;100075.44;;;25.63;43.86
21988;BME280;11158;53.404;-1.510;2023-08-24T12:54:41;100073.75;;;25.43;44.67
21988;BME280;11158;53.404;-1.510;2023-08-24T12:57:25;100058.69;;;26.27;42.66
21988;BME280;11158;53.404;-1.510;2023-08-24T13:00:09;100051.78;;;25.73;43.17
21988;BME280;11158;53.404;-1.510;2023-08-24T13:02:55;100038.81;;;26.02;42.52
21988;BME280;11158;53.404;-1.510;2023-08-24T13:05:39;100029.19;;;26.89;40.19
21988;BME280;11158;53.404;-1.510;2023-08-24T13:08:24;100044.63;;;26.85;39.56
21988;BME280;11158;53.404;-1.510;2023-08-24T13:11:09;100044.13;;;26.97;39.53
21988;BME280;11158;53.404;-1.510;2023-08-24T13:13:55;100052.13;;;27.26;38.96
21988;BME280;11158;53.404;-1.510;2023-08-24T13:16:38;100046.22;;;26.86;39.64
21988;BME280;11158;53.404;-1.510;2023-08-24T13:19:23;100037.88;;;27.24;38.47
21988;BME280;11158;53.404;-1.510;2023-08-24T13:22:07;100036.66;;;27.30;38.01
21988;BME280;11158;53.404;-1.510;2023-08-24T13:24:52;100039.91;;;27.46;37.76
21988;BME280;11158;53.404;-1.510;2023-08-24T13:27:36;100034.75;;;28.09;36.83
21988;BME280;11158;53.404;-1.510;2023-08-24T13:30:20;100028.53;;;28.03;36.16
21988;BME280;11158;53.404;-1.510;2023-08-24T13:33:04;100028.22;;;27.54;37.48
21988;BME280;11158;53.404;-1.510;2023-08-24T13:35:48;100025.63;;;28.22;35.71
21988;BME280;11158;53.404;-1.510;2023-08-24T13:38:32;100028.72;;;28.66;35.48
21988;BME280;11158;53.404;-1.510;2023-08-24T13:41:16;100031.47;;;27.29;37.81
21988;BME280;11158;53.404;-1.510;2023-08-24T13:44:00;100038.03;;;27.14;37.59
21988;BME280;11158;53.404;-1.510;2023-08-24T13:46:44;100042.47;;;26.82;39.13
21988;BME280;11158;53.404;-1.510;2023-08-24T13:49:28;100033.94;;;27.44;37.67
21988;BME280;11158;53.404;-1.510;2023-08-24T13:52:12;100033.69;;;25.96;39.96
21988;BME280;11158;53.404;-1.510;2023-08-24T13:54:56;100034.88;;;26.93;38.28
21988;BME280;11158;53.404;-1.510;2023-08-24T13:57:42;100036.16;;;26.49;39.69
21988;BME280;11158;53.404;-1.510;2023-08-24T14:00:26;100019.44;;;26.50;39.72
21988;BME280;11158;53.404;-1.510;2023-08-24T14:03:10;100017.41;;;26.23;39.27
21988;BME280;11158;53.404;-1.510;2023-08-24T14:05:55;100016.59;;;25.61;39.86
21988;BME280;11158;53.404;-1.510;2023-08-24T14:08:40;100031.97;;;26.00;39.12
21988;BME280;11158;53.404;-1.510;2023-08-24T14:11:24;100022.84;;;25.85;38.97
21988;BME280;11158;53.404;-1.510;2023-08-24T14:14:08;100015.34;;;25.96;39.33
21988;BME280;11158;53.404;-1.510;2023-08-24T14:16:56;100012.88;;;26.13;38.56
21988;BME280;11158;53.404;-1.510;2023-08-24T14:19:41;100012.44;;;26.25;36.86
21988;BME280;11158;53.404;-1.510;2023-08-24T14:22:25;100008.84;;;26.77;36.18